sensor_id;sensor_type;location;lat;lon;timestamp;temperature;humidity
68867;SHT30;56451;44.804;20.476;2022-10-16T00:00:44;16.86;50.06
68867;SHT30;56451;44.804;20.476;2022-10-16T00:03:11;16.86;49.96
68867;SHT30;56451;44.804;20.476;2022-10-16T00:05:41;16.89;49.98
68867;SHT30;56451;44.804;20.476;2022-10-16T00:08:10;16.88;49.96
68867;SHT30;56451;44.804;20.476;2022-10-16T00:10:36;16.89;49.97
68867;SHT30;56451;44.804;20.476;2022-10-16T00:13:03;16.95;49.87
68867;SHT30;56451;44.804;20.476;2022-10-16T00:15:32;16.92;49.86
68867;SHT30;56451;44.804;20.476;2022-10-16T00:17:58;16.86;50.04
68867;SHT30;56451;44.804;20.476;2022-10-16T00:20:24;16.88;50.02
68867;SHT30;56451;44.804;20.476;2022-10-16T00:23:08;16.84;50.27
68867;SHT30;56451;44.804;20.476;2022-10-16T00:25:37;16.88;50.26
68867;SHT30;56451;44.804;20.476;2022-10-16T00:28:03;16.84;50.39
68867;SHT30;56451;44.804;20.476;2022-10-16T00:30:29;16.85;50.40
68867;SHT30;56451;44.804;20.476;2022-10-16T00:32:55;16.85;50.49
68867;SHT30;56451;44.804;20.476;2022-10-16T00:35:23;16.84;50.36
68867;SHT30;56451;44.804;20.476;2022-10-16T00:37:49;16.86;50.48
68867;SHT30;56451;44.804;20.476;2022-10-16T00:40:15;16.84;50.54
68867;SHT30;56451;44.804;20.476;2022-10-16T00:42:41;16.82;50.49
68867;SHT30;56451;44.804;20.476;2022-10-16T00:45:08;16.89;50.53
68867;SHT30;56451;44.804;20.476;2022-10-16T00:47:42;16.91;50.51
68867;SHT30;56451;44.804;20.476;2022-10-16T00:52:45;16.92;50.56
68867;SHT30;56451;44.804;20.476;2022-10-16T00:55:14;16.91;50.51
68867;SHT30;56451;44.804;20.476;2022-10-16T00:57:40;16.89;50.46
68867;SHT30;56451;44.804;20.476;2022-10-16T01:00:09;16.91;50.42
68867;SHT30;56451;44.804;20.476;2022-10-16T01:02:35;16.88;50.63
68867;SHT30;56451;44.804;20.476;2022-10-16T01:05:02;16.86;50.70
68867;SHT30;56451;44.804;20.476;2022-10-16T01:07:56;16.82;50.78
68867;SHT30;56451;44.804;20.476;2022-10-16T01:10:31;16.78;51.01
68867;SHT30;56451;44.804;20.476;2022-10-16T01:13:18;16.76;50.95
68867;SHT30;56451;44.804;20.476;2022-10-16T01:15:58;16.71;51.21
68867;SHT30;56451;44.804;20.476;2022-10-16T01:18:37;16.69;51.30
68867;SHT30;56451;44.804;20.476;2022-10-16T01:21:31;16.69;51.33
68867;SHT30;56451;44.804;20.476;2022-10-16T01:24:08;16.65;51.28
68867;SHT30;56451;44.804;20.476;2022-10-16T01:37:38;16.60;51.63
68867;SHT30;56451;44.804;20.476;2022-10-16T01:40:10;16.58;51.80
68867;SHT30;56451;44.804;20.476;2022-10-16T01:42:42;16.58;51.87
68867;SHT30;56451;44.804;20.476;2022-10-16T01:45:13;16.60;51.77
68867;SHT30;56451;44.804;20.476;2022-10-16T01:47:41;16.58;51.68
68867;SHT30;56451;44.804;20.476;2022-10-16T01:50:08;16.60;51.77
68867;SHT30;56451;44.804;20.476;2022-10-16T01:52:42;16.64;51.72
68867;SHT30;56451;44.804;20.476;2022-10-16T01:55:10;16.61;51.66
68867;SHT30;56451;44.804;20.476;2022-10-16T01:57:40;16.61;51.64
68867;SHT30;56451;44.804;20.476;2022-10-16T02:00:09;16.60;51.72
68867;SHT30;56451;44.804;20.476;2022-10-16T02:02:41;16.55;51.78
68867;SHT30;56451;44.804;20.476;2022-10-16T02:05:22;16.58;51.83
68867;SHT30;56451;44.804;20.476;2022-10-16T02:07:49;16.54;51.93
68867;SHT30;56451;44.804;20.476;2022-10-16T02:10:15;16.55;51.88
68867;SHT30;56451;44.804;20.476;2022-10-16T02:12:47;16.57;51.87
68867;SHT30;56451;44.804;20.476;2022-10-16T02:15:14;16.58;52.00
68867;SHT30;56451;44.804;20.476;2022-10-16T02:17:40;16.60;51.87
68867;SHT30;56451;44.804;20.476;2022-10-16T02:20:06;16.54;52.05
68867;SHT30;56451;44.804;20.476;2022-10-16T02:22:45;16.51;52.04
68867;SHT30;56451;44.804;20.476;2022-10-16T02:25:32;16.53;52.00
68867;SHT30;56451;44.804;20.476;2022-10-16T02:28:04;16.50;52.10
68867;SHT30;56451;44.804;20.476;2022-10-16T02:30:39;16.51;52.08
68867;SHT30;56451;44.804;20.476;2022-10-16T02:33:09;16.45;52.13
68867;SHT30;56451;44.804;20.476;2022-10-16T02:35:37;16.47;52.12
68867;SHT30;56451;44.804;20.476;2022-10-16T02:38:04;16.47;52.28
68867;SHT30;56451;44.804;20.476;2022-10-16T02:40:30;16.44;52.16
68867;SHT30;56451;44.804;20.476;2022-10-16T02:42:57;16.45;52.21
68867;SHT30;56451;44.804;20.476;2022-10-16T02:45:23;16.44;52.08
68867;SHT30;56451;44.804;20.476;2022-10-16T02:47:49;16.45;52.09
68867;SHT30;56451;44.804;20.476;2022-10-16T02:50:16;16.45;52.12
68867;SHT30;56451;44.804;20.476;2022-10-16T02:52:42;16.41;52.16
68867;SHT30;56451;44.804;20.476;2022-10-16T02:55:08;16.44;52.11
68867;SHT30;56451;44.804;20.476;2022-10-16T02:57:34;16.50;51.88
68867;SHT30;56451;44.804;20.476;2022-10-16T03:00:05;16.48;51.87
68867;SHT30;56451;44.804;20.476;2022-10-16T03:02:31;16.48;51.80
68867;SHT30;56451;44.804;20.476;2022-10-16T03:05:00;16.47;51.81
68867;SHT30;56451;44.804;20.476;2022-10-16T03:07:26;16.44;51.81
68867;SHT30;56451;44.804;20.476;2022-10-16T03:09:52;16.47;51.90
68867;SHT30;56451;44.804;20.476;2022-10-16T03:12:18;16.44;51.86
68867;SHT30;56451;44.804;20.476;2022-10-16T03:14:44;16.40;52.10
68867;SHT30;56451;44.804;20.476;2022-10-16T03:17:09;16.43;52.02
68867;SHT30;56451;44.804;20.476;2022-10-16T03:19:35;16.38;52.03
68867;SHT30;56451;44.804;20.476;2022-10-16T03:22:01;16.38;51.96
68867;SHT30;56451;44.804;20.476;2022-10-16T03:24:27;16.38;51.95
68867;SHT30;56451;44.804;20.476;2022-10-16T03:26:53;16.40;51.78
68867;SHT30;56451;44.804;20.476;2022-10-16T03:29:19;16.38;51.84
68867;SHT30;56451;44.804;20.476;2022-10-16T03:31:45;16.37;51.93
68867;SHT30;56451;44.804;20.476;2022-10-16T03:34:11;16.33;51.92
68867;SHT30;56451;44.804;20.476;2022-10-16T03:36:36;16.31;52.02
68867;SHT30;56451;44.804;20.476;2022-10-16T03:39:02;16.27;52.14
68867;SHT30;56451;44.804;20.476;2022-10-16T03:41:28;16.27;52.10
68867;SHT30;56451;44.804;20.476;2022-10-16T03:43:57;16.24;52.06
68867;SHT30;56451;44.804;20.476;2022-10-16T03:46:22;16.26;52.04
68867;SHT30;56451;44.804;20.476;2022-10-16T03:48:48;16.26;52.18
68867;SHT30;56451;44.804;20.476;2022-10-16T03:51:14;16.24;52.16
68867;SHT30;56451;44.804;20.476;2022-10-16T03:53:40;16.18;52.21
68867;SHT30;56451;44.804;20.476;2022-10-16T03:56:06;16.17;52.40
68867;SHT30;56451;44.804;20.476;2022-10-16T03:58:35;16.18;52.38
68867;SHT30;56451;44.804;20.476;2022-10-16T04:01:01;16.13;52.52
68867;SHT30;56451;44.804;20.476;2022-10-16T04:03:27;16.12;52.64
68867;SHT30;56451;44.804;20.476;2022-10-16T04:05:53;16.06;52.90
68867;SHT30;56451;44.804;20.476;2022-10-16T04:08:19;16.03;52.99
68867;SHT30;56451;44.804;20.476;2022-10-16T04:10:45;16.00;53.12
68867;SHT30;56451;44.804;20.476;2022-10-16T04:13:14;15.99;53.40
68867;SHT30;56451;44.804;20.476;2022-10-16T04:15:40;15.97;53.45
68867;SHT30;56451;44.804;20.476;2022-10-16T04:18:06;15.99;53.26
68867;SHT30;56451;44.804;20.476;2022-10-16T04:20:33;15.97;53.37
68867;SHT30;56451;44.804;20.476;2022-10-16T04:22:59;15.96;53.52
68867;SHT30;56451;44.804;20.476;2022-10-16T04:25:25;15.92;53.47
68867;SHT30;56451;44.804;20.476;2022-10-16T04:27:53;15.90;53.55
68867;SHT30;56451;44.804;20.476;2022-10-16T04:30:19;15.83;53.73
68867;SHT30;56451;44.804;20.476;2022-10-16T04:32:49;15.86;53.76
68867;SHT30;56451;44.804;20.476;2022-10-16T04:35:17;15.83;53.80
68867;SHT30;56451;44.804;20.476;2022-10-16T04:37:43;15.78;53.88
68867;SHT30;56451;44.804;20.476;2022-10-16T04:40:09;15.79;53.90
68867;SHT30;56451;44.804;20.476;2022-10-16T04:42:35;15.78;53.91
68867;SHT30;56451;44.804;20.476;2022-10-16T04:45:01;15.76;53.95
68867;SHT30;56451;44.804;20.476;2022-10-16T04:47:27;15.70;54.05
68867;SHT30;56451;44.804;20.476;2022-10-16T04:49:54;15.73;54.13
68867;SHT30;56451;44.804;20.476;2022-10-16T04:52:20;15.70;53.99
68867;SHT30;56451;44.804;20.476;2022-10-16T04:54:47;15.68;54.05
68867;SHT30;56451;44.804;20.476;2022-10-16T04:57:13;15.65;54.03
68867;SHT30;56451;44.804;20.476;2022-10-16T04:59:38;15.68;54.06
68867;SHT30;56451;44.804;20.476;2022-10-16T05:02:08;15.69;53.96
68867;SHT30;56451;44.804;20.476;2022-10-16T05:04:33;15.63;54.10
68867;SHT30;56451;44.804;20.476;2022-10-16T05:07:00;15.66;53.98
68867;SHT30;56451;44.804;20.476;2022-10-16T05:09:26;15.68;53.99
68867;SHT30;56451;44.804;20.476;2022-10-16T05:11:51;15.65;53.93
68867;SHT30;56451;44.804;20.476;2022-10-16T05:14:18;15.69;53.82
68867;SHT30;56451;44.804;20.476;2022-10-16T05:16:44;15.70;53.88
68867;SHT30;56451;44.804;20.476;2022-10-16T05:19:10;15.69;53.94
68867;SHT30;56451;44.804;20.476;2022-10-16T05:21:36;15.73;53.83
68867;SHT30;56451;44.804;20.476;2022-10-16T05:24:04;15.75;53.80
68867;SHT30;56451;44.804;20.476;2022-10-16T05:26:30;15.75;53.83
68867;SHT30;56451;44.804;20.476;2022-10-16T05:28:56;15.78;53.87
68867;SHT30;56451;44.804;20.476;2022-10-16T05:31:22;15.75;53.93
68867;SHT30;56451;44.804;20.476;2022-10-16T05:33:48;15.75;54.03
68867;SHT30;56451;44.804;20.476;2022-10-16T05:36:14;15.72;54.12
68867;SHT30;56451;44.804;20.476;2022-10-16T05:38:40;15.75;54.06
68867;SHT30;56451;44.804;20.476;2022-10-16T05:41:06;15.76;53.95
68867;SHT30;56451;44.804;20.476;2022-10-16T05:43:32;15.78;53.90
68867;SHT30;56451;44.804;20.476;2022-10-16T05:45:59;15.79;53.80
68867;SHT30;56451;44.804;20.476;2022-10-16T05:48:26;15.78;53.86
68867;SHT30;56451;44.804;20.476;2022-10-16T05:51:03;15.83;53.85
68867;SHT30;56451;44.804;20.476;2022-10-16T05:53:32;15.81;53.69
68867;SHT30;56451;44.804;20.476;2022-10-16T05:55:58;15.88;53.65
68867;SHT30;56451;44.804;20.476;2022-10-16T05:58:32;15.88;53.69
68867;SHT30;56451;44.804;20.476;2022-10-16T06:01:01;15.95;53.46
68867;SHT30;56451;44.804;20.476;2022-10-16T06:03:28;15.96;53.36
68867;SHT30;56451;44.804;20.476;2022-10-16T06:05:57;15.99;53.52
68867;SHT30;56451;44.804;20.476;2022-10-16T06:08:23;16.05;53.29
68867;SHT30;56451;44.804;20.476;2022-10-16T06:11:00;16.03;53.25
68867;SHT30;56451;44.804;20.476;2022-10-16T06:13:26;16.03;53.35
68867;SHT30;56451;44.804;20.476;2022-10-16T06:15:51;16.03;53.40
68867;SHT30;56451;44.804;20.476;2022-10-16T06:18:17;16.03;53.47
68867;SHT30;56451;44.804;20.476;2022-10-16T06:20:43;16.06;53.47
68867;SHT30;56451;44.804;20.476;2022-10-16T06:23:09;16.06;53.50
68867;SHT30;56451;44.804;20.476;2022-10-16T06:25:35;16.07;53.57
68867;SHT30;56451;44.804;20.476;2022-10-16T06:28:00;16.12;53.68
68867;SHT30;56451;44.804;20.476;2022-10-16T06:30:26;16.12;53.66
68867;SHT30;56451;44.804;20.476;2022-10-16T06:32:52;16.14;53.72
68867;SHT30;56451;44.804;20.476;2022-10-16T06:35:18;16.18;53.47
68867;SHT30;56451;44.804;20.476;2022-10-16T06:37:44;16.20;53.23
68867;SHT30;56451;44.804;20.476;2022-10-16T06:40:10;16.21;53.45
68867;SHT30;56451;44.804;20.476;2022-10-16T06:42:42;16.26;53.17
68867;SHT30;56451;44.804;20.476;2022-10-16T06:45:11;16.24;53.12
68867;SHT30;56451;44.804;20.476;2022-10-16T06:47:36;16.28;53.18
68867;SHT30;56451;44.804;20.476;2022-10-16T06:50:03;16.28;53.29
68867;SHT30;56451;44.804;20.476;2022-10-16T06:52:29;16.30;53.12
68867;SHT30;56451;44.804;20.476;2022-10-16T06:54:55;16.33;53.23
68867;SHT30;56451;44.804;20.476;2022-10-16T06:57:21;16.38;53.29
68867;SHT30;56451;44.804;20.476;2022-10-16T06:59:47;16.38;53.46
68867;SHT30;56451;44.804;20.476;2022-10-16T07:02:13;16.45;53.43
68867;SHT30;56451;44.804;20.476;2022-10-16T07:04:39;16.51;53.29
68867;SHT30;56451;44.804;20.476;2022-10-16T07:07:05;16.55;53.30
68867;SHT30;56451;44.804;20.476;2022-10-16T07:09:34;16.58;53.27
68867;SHT30;56451;44.804;20.476;2022-10-16T07:12:00;16.65;53.14
68867;SHT30;56451;44.804;20.476;2022-10-16T07:14:25;16.65;53.12
68867;SHT30;56451;44.804;20.476;2022-10-16T07:16:51;16.72;52.81
68867;SHT30;56451;44.804;20.476;2022-10-16T07:19:17;16.74;52.85
68867;SHT30;56451;44.804;20.476;2022-10-16T07:21:44;16.79;53.02
68867;SHT30;56451;44.804;20.476;2022-10-16T07:24:13;16.82;52.75
68867;SHT30;56451;44.804;20.476;2022-10-16T07:26:40;16.84;52.66
68867;SHT30;56451;44.804;20.476;2022-10-16T07:29:17;16.88;52.70
68867;SHT30;56451;44.804;20.476;2022-10-16T07:31:44;16.91;52.55
68867;SHT30;56451;44.804;20.476;2022-10-16T07:34:12;16.94;52.53
68867;SHT30;56451;44.804;20.476;2022-10-16T07:36:39;16.98;52.54
68867;SHT30;56451;44.804;20.476;2022-10-16T07:39:05;17.05;52.34
68867;SHT30;56451;44.804;20.476;2022-10-16T07:41:31;17.12;52.44
68867;SHT30;56451;44.804;20.476;2022-10-16T07:43:59;17.13;52.33
68867;SHT30;56451;44.804;20.476;2022-10-16T07:46:27;17.19;52.20
68867;SHT30;56451;44.804;20.476;2022-10-16T07:48:53;17.24;52.11
68867;SHT30;56451;44.804;20.476;2022-10-16T07:51:21;17.29;52.07
68867;SHT30;56451;44.804;20.476;2022-10-16T07:53:47;17.33;52.13
68867;SHT30;56451;44.804;20.476;2022-10-16T07:56:13;17.39;51.90
68867;SHT30;56451;44.804;20.476;2022-10-16T07:58:39;17.44;51.73
68867;SHT30;56451;44.804;20.476;2022-10-16T08:01:08;17.46;51.39
68867;SHT30;56451;44.804;20.476;2022-10-16T08:03:35;17.54;51.30
68867;SHT30;56451;44.804;20.476;2022-10-16T08:06:01;17.57;51.11
68867;SHT30;56451;44.804;20.476;2022-10-16T08:08:27;17.64;50.30
68867;SHT30;56451;44.804;20.476;2022-10-16T08:10:54;17.71;49.90
68867;SHT30;56451;44.804;20.476;2022-10-16T08:13:20;17.78;49.99
68867;SHT30;56451;44.804;20.476;2022-10-16T08:15:48;17.81;49.76
68867;SHT30;56451;44.804;20.476;2022-10-16T08:18:14;17.84;49.74
68867;SHT30;56451;44.804;20.476;2022-10-16T08:20:43;17.87;49.58
68867;SHT30;56451;44.804;20.476;2022-10-16T08:23:10;17.92;49.43
68867;SHT30;56451;44.804;20.476;2022-10-16T08:25:39;17.98;49.29
68867;SHT30;56451;44.804;20.476;2022-10-16T08:28:06;18.04;49.27
68867;SHT30;56451;44.804;20.476;2022-10-16T08:30:32;18.09;49.33
68867;SHT30;56451;44.804;20.476;2022-10-16T08:32:59;18.13;49.24
68867;SHT30;56451;44.804;20.476;2022-10-16T08:35:25;18.19;49.37
68867;SHT30;56451;44.804;20.476;2022-10-16T08:37:51;18.28;49.13
68867;SHT30;56451;44.804;20.476;2022-10-16T08:40:23;18.33;48.80
68867;SHT30;56451;44.804;20.476;2022-10-16T08:48:44;18.46;48.07
68867;SHT30;56451;44.804;20.476;2022-10-16T08:51:22;18.52;47.96
68867;SHT30;56451;44.804;20.476;2022-10-16T08:53:55;18.56;47.77
68867;SHT30;56451;44.804;20.476;2022-10-16T08:56:24;18.63;47.72
68867;SHT30;56451;44.804;20.476;2022-10-16T08:58:52;18.64;47.86
68867;SHT30;56451;44.804;20.476;2022-10-16T09:01:19;18.69;47.36
68867;SHT30;56451;44.804;20.476;2022-10-16T09:06:48;18.76;47.20
68867;SHT30;56451;44.804;20.476;2022-10-16T09:09:47;18.80;47.39
68867;SHT30;56451;44.804;20.476;2022-10-16T09:12:57;18.93;47.15
68867;SHT30;56451;44.804;20.476;2022-10-16T09:18:15;19.06;46.82
68867;SHT30;56451;44.804;20.476;2022-10-16T09:20:49;19.11;46.72
68867;SHT30;56451;44.804;20.476;2022-10-16T09:23:24;19.18;46.50
68867;SHT30;56451;44.804;20.476;2022-10-16T09:25:51;19.22;46.33
68867;SHT30;56451;44.804;20.476;2022-10-16T09:28:18;19.25;46.49
68867;SHT30;56451;44.804;20.476;2022-10-16T09:30:45;19.35;46.45
68867;SHT30;56451;44.804;20.476;2022-10-16T09:33:12;19.38;46.38
68867;SHT30;56451;44.804;20.476;2022-10-16T09:35:44;19.42;46.29
68867;SHT30;56451;44.804;20.476;2022-10-16T09:38:27;19.45;46.60
68867;SHT30;56451;44.804;20.476;2022-10-16T09:40:55;19.49;46.78
68867;SHT30;56451;44.804;20.476;2022-10-16T09:43:26;19.54;46.61
68867;SHT30;56451;44.804;20.476;2022-10-16T09:46:04;19.61;46.32
68867;SHT30;56451;44.804;20.476;2022-10-16T09:48:37;19.62;46.38
68867;SHT30;56451;44.804;20.476;2022-10-16T09:51:06;19.62;46.48
68867;SHT30;56451;44.804;20.476;2022-10-16T09:53:41;19.67;46.51
68867;SHT30;56451;44.804;20.476;2022-10-16T09:56:10;19.72;46.58
68867;SHT30;56451;44.804;20.476;2022-10-16T09:58:43;19.80;46.49
68867;SHT30;56451;44.804;20.476;2022-10-16T10:01:14;19.82;46.38
68867;SHT30;56451;44.804;20.476;2022-10-16T10:03:42;19.84;46.53
68867;SHT30;56451;44.804;20.476;2022-10-16T10:06:18;19.89;46.29
68867;SHT30;56451;44.804;20.476;2022-10-16T10:09:04;19.96;46.08
68867;SHT30;56451;44.804;20.476;2022-10-16T10:11:42;19.96;46.20
68867;SHT30;56451;44.804;20.476;2022-10-16T10:14:22;19.98;46.20
68867;SHT30;56451;44.804;20.476;2022-10-16T10:16:50;20.07;46.23
68867;SHT30;56451;44.804;20.476;2022-10-16T10:19:18;20.07;46.32
68867;SHT30;56451;44.804;20.476;2022-10-16T10:21:45;20.12;46.36
68867;SHT30;56451;44.804;20.476;2022-10-16T10:24:16;20.17;46.23
68867;SHT30;56451;44.804;20.476;2022-10-16T10:27:08;20.23;46.36
68867;SHT30;56451;44.804;20.476;2022-10-16T10:29:45;20.24;46.58
68867;SHT30;56451;44.804;20.476;2022-10-16T10:32:39;20.27;46.25
68867;SHT30;56451;44.804;20.476;2022-10-16T10:41:13;20.40;46.32
68867;SHT30;56451;44.804;20.476;2022-10-16T10:44:03;20.45;46.10
68867;SHT30;56451;44.804;20.476;2022-10-16T10:46:35;20.51;46.02
68867;SHT30;56451;44.804;20.476;2022-10-16T10:54:28;20.61;46.01
68867;SHT30;56451;44.804;20.476;2022-10-16T10:57:02;20.64;45.70
68867;SHT30;56451;44.804;20.476;2022-10-16T11:02:41;20.71;45.75
68867;SHT30;56451;44.804;20.476;2022-10-16T11:07:58;20.76;45.34
68867;SHT30;56451;44.804;20.476;2022-10-16T11:10:45;20.85;45.34
68867;SHT30;56451;44.804;20.476;2022-10-16T11:13:58;20.86;45.13
68867;SHT30;56451;44.804;20.476;2022-10-16T11:16:48;20.90;44.97
68867;SHT30;56451;44.804;20.476;2022-10-16T11:19:41;20.92;45.14
68867;SHT30;56451;44.804;20.476;2022-10-16T11:22:26;20.92;44.98
68867;SHT30;56451;44.804;20.476;2022-10-16T11:25:00;21.03;44.94
68867;SHT30;56451;44.804;20.476;2022-10-16T11:30:05;21.09;44.85
68867;SHT30;56451;44.804;20.476;2022-10-16T11:32:39;21.13;44.88
68867;SHT30;56451;44.804;20.476;2022-10-16T11:35:19;21.16;44.83
68867;SHT30;56451;44.804;20.476;2022-10-16T11:37:50;21.19;44.56
68867;SHT30;56451;44.804;20.476;2022-10-16T11:40:37;21.27;44.77
68867;SHT30;56451;44.804;20.476;2022-10-16T11:43:17;21.31;44.65
68867;SHT30;56451;44.804;20.476;2022-10-16T11:45:49;21.39;44.60
68867;SHT30;56451;44.804;20.476;2022-10-16T11:53:41;21.48;44.00
68867;SHT30;56451;44.804;20.476;2022-10-16T11:56:12;21.51;44.07
68867;SHT30;56451;44.804;20.476;2022-10-16T12:01:33;21.60;43.91
68867;SHT30;56451;44.804;20.476;2022-10-16T12:07:21;21.69;43.80
68867;SHT30;56451;44.804;20.476;2022-10-16T12:09:49;21.71;43.84
68867;SHT30;56451;44.804;20.476;2022-10-16T12:15:28;21.77;43.54
68867;SHT30;56451;44.804;20.476;2022-10-16T12:17:55;21.84;43.60
68867;SHT30;56451;44.804;20.476;2022-10-16T12:20:23;21.84;43.45
68867;SHT30;56451;44.804;20.476;2022-10-16T12:22:56;21.88;43.58
68867;SHT30;56451;44.804;20.476;2022-10-16T12:25:34;21.91;43.40
68867;SHT30;56451;44.804;20.476;2022-10-16T12:28:26;21.96;43.02
68867;SHT30;56451;44.804;20.476;2022-10-16T12:31:05;22.01;42.82
68867;SHT30;56451;44.804;20.476;2022-10-16T12:33:33;22.02;42.85
68867;SHT30;56451;44.804;20.476;2022-10-16T12:36:02;22.06;42.92
68867;SHT30;56451;44.804;20.476;2022-10-16T12:38:48;22.08;43.03
68867;SHT30;56451;44.804;20.476;2022-10-16T12:41:28;22.12;43.11
68867;SHT30;56451;44.804;20.476;2022-10-16T12:43:54;22.16;42.88
68867;SHT30;56451;44.804;20.476;2022-10-16T12:46:40;22.20;43.08
68867;SHT30;56451;44.804;20.476;2022-10-16T12:49:21;22.22;42.68
68867;SHT30;56451;44.804;20.476;2022-10-16T12:51:47;22.22;42.65
68867;SHT30;56451;44.804;20.476;2022-10-16T12:54:31;22.23;42.71
68867;SHT30;56451;44.804;20.476;2022-10-16T12:57:07;22.28;42.65
68867;SHT30;56451;44.804;20.476;2022-10-16T13:00:10;22.29;42.82
68867;SHT30;56451;44.804;20.476;2022-10-16T13:10:55;22.45;42.11
68867;SHT30;56451;44.804;20.476;2022-10-16T13:16:45;22.52;41.86
68867;SHT30;56451;44.804;20.476;2022-10-16T13:30:02;22.64;41.32
68867;SHT30;56451;44.804;20.476;2022-10-16T13:32:35;22.63;41.69
68867;SHT30;56451;44.804;20.476;2022-10-16T13:35:00;22.66;41.24
68867;SHT30;56451;44.804;20.476;2022-10-16T13:37:26;22.67;41.18
68867;SHT30;56451;44.804;20.476;2022-10-16T13:40:28;22.71;41.32
68867;SHT30;56451;44.804;20.476;2022-10-16T13:42:53;22.70;41.23
68867;SHT30;56451;44.804;20.476;2022-10-16T13:45:21;22.67;41.29
68867;SHT30;56451;44.804;20.476;2022-10-16T13:47:47;22.74;41.25
68867;SHT30;56451;44.804;20.476;2022-10-16T13:50:16;22.83;40.76
68867;SHT30;56451;44.804;20.476;2022-10-16T13:52:42;22.83;41.02
68867;SHT30;56451;44.804;20.476;2022-10-16T13:55:16;22.90;40.88
68867;SHT30;56451;44.804;20.476;2022-10-16T13:57:43;22.93;40.36
68867;SHT30;56451;44.804;20.476;2022-10-16T14:00:26;22.95;40.22
68867;SHT30;56451;44.804;20.476;2022-10-16T14:03:01;23.01;40.22
68867;SHT30;56451;44.804;20.476;2022-10-16T14:05:27;23.07;40.00
68867;SHT30;56451;44.804;20.476;2022-10-16T14:07:54;23.07;39.69
68867;SHT30;56451;44.804;20.476;2022-10-16T14:10:30;23.12;39.68
68867;SHT30;56451;44.804;20.476;2022-10-16T14:12:59;23.12;39.78
68867;SHT30;56451;44.804;20.476;2022-10-16T14:15:26;23.18;39.82
68867;SHT30;56451;44.804;20.476;2022-10-16T14:17:52;23.23;39.56
68867;SHT30;56451;44.804;20.476;2022-10-16T14:20:21;23.28;39.57
68867;SHT30;56451;44.804;20.476;2022-10-16T14:23:02;23.29;39.41
68867;SHT30;56451;44.804;20.476;2022-10-16T14:25:30;23.35;39.27
68867;SHT30;56451;44.804;20.476;2022-10-16T14:28:21;23.38;38.93
68867;SHT30;56451;44.804;20.476;2022-10-16T14:30:54;23.41;38.86
68867;SHT30;56451;44.804;20.476;2022-10-16T14:33:32;23.45;38.74
68867;SHT30;56451;44.804;20.476;2022-10-16T14:36:02;23.46;38.59
68867;SHT30;56451;44.804;20.476;2022-10-16T14:38:29;23.51;38.64
68867;SHT30;56451;44.804;20.476;2022-10-16T14:40:57;23.52;38.62
68867;SHT30;56451;44.804;20.476;2022-10-16T14:43:33;23.52;38.44
68867;SHT30;56451;44.804;20.476;2022-10-16T14:46:01;23.51;38.18
68867;SHT30;56451;44.804;20.476;2022-10-16T14:48:28;23.52;38.27
68867;SHT30;56451;44.804;20.476;2022-10-16T14:50:54;23.46;38.16
68867;SHT30;56451;44.804;20.476;2022-10-16T14:53:20;23.43;38.33
68867;SHT30;56451;44.804;20.476;2022-10-16T14:55:46;23.43;38.14
68867;SHT30;56451;44.804;20.476;2022-10-16T14:58:19;23.41;38.23
68867;SHT30;56451;44.804;20.476;2022-10-16T15:00:46;23.42;38.38
68867;SHT30;56451;44.804;20.476;2022-10-16T15:03:12;23.39;38.40
68867;SHT30;56451;44.804;20.476;2022-10-16T15:05:39;23.35;38.37
68867;SHT30;56451;44.804;20.476;2022-10-16T15:08:04;23.37;38.30
68867;SHT30;56451;44.804;20.476;2022-10-16T15:10:31;23.32;38.14
68867;SHT30;56451;44.804;20.476;2022-10-16T15:12:59;23.26;38.39
68867;SHT30;56451;44.804;20.476;2022-10-16T15:15:37;23.23;38.53
68867;SHT30;56451;44.804;20.476;2022-10-16T15:18:04;23.22;38.60
68867;SHT30;56451;44.804;20.476;2022-10-16T15:20:36;23.22;38.63
68867;SHT30;56451;44.804;20.476;2022-10-16T15:23:13;23.18;38.74
68867;SHT30;56451;44.804;20.476;2022-10-16T15:25:43;23.12;38.90
68867;SHT30;56451;44.804;20.476;2022-10-16T15:28:10;23.05;38.74
68867;SHT30;56451;44.804;20.476;2022-10-16T15:30:37;22.98;39.04
68867;SHT30;56451;44.804;20.476;2022-10-16T15:33:05;22.88;39.21
68867;SHT30;56451;44.804;20.476;2022-10-16T15:35:31;22.81;39.29
68867;SHT30;56451;44.804;20.476;2022-10-16T15:37:57;22.73;39.50
68867;SHT30;56451;44.804;20.476;2022-10-16T15:40:23;22.63;39.60
68867;SHT30;56451;44.804;20.476;2022-10-16T15:42:49;22.60;39.74
68867;SHT30;56451;44.804;20.476;2022-10-16T15:45:15;22.53;39.82
68867;SHT30;56451;44.804;20.476;2022-10-16T15:47:42;22.42;40.11
68867;SHT30;56451;44.804;20.476;2022-10-16T15:50:10;22.33;40.18
68867;SHT30;56451;44.804;20.476;2022-10-16T15:52:37;22.25;40.37
68867;SHT30;56451;44.804;20.476;2022-10-16T15:55:09;22.16;40.63
68867;SHT30;56451;44.804;20.476;2022-10-16T15:57:36;22.06;40.99
68867;SHT30;56451;44.804;20.476;2022-10-16T16:00:10;21.95;41.27
68867;SHT30;56451;44.804;20.476;2022-10-16T16:02:38;21.87;41.64
68867;SHT30;56451;44.804;20.476;2022-10-16T16:05:04;21.79;41.93
68867;SHT30;56451;44.804;20.476;2022-10-16T16:07:36;21.69;42.10
68867;SHT30;56451;44.804;20.476;2022-10-16T16:10:05;21.61;42.44
68867;SHT30;56451;44.804;20.476;2022-10-16T16:12:31;21.47;42.69
68867;SHT30;56451;44.804;20.476;2022-10-16T16:14:57;21.40;44.47
68867;SHT30;56451;44.804;20.476;2022-10-16T16:17:23;21.36;45.75
68867;SHT30;56451;44.804;20.476;2022-10-16T16:19:50;21.27;45.25
68867;SHT30;56451;44.804;20.476;2022-10-16T16:22:16;21.22;45.07
68867;SHT30;56451;44.804;20.476;2022-10-16T16:24:42;21.16;44.86
68867;SHT30;56451;44.804;20.476;2022-10-16T16:27:08;21.09;44.90
68867;SHT30;56451;44.804;20.476;2022-10-16T16:29:34;21.06;44.99
68867;SHT30;56451;44.804;20.476;2022-10-16T16:32:00;21.00;44.99
68867;SHT30;56451;44.804;20.476;2022-10-16T16:34:27;20.95;45.12
68867;SHT30;56451;44.804;20.476;2022-10-16T16:36:54;20.93;44.89
68867;SHT30;56451;44.804;20.476;2022-10-16T16:39:21;20.86;44.83
68867;SHT30;56451;44.804;20.476;2022-10-16T16:41:47;20.79;44.12
68867;SHT30;56451;44.804;20.476;2022-10-16T16:44:14;20.67;44.11
68867;SHT30;56451;44.804;20.476;2022-10-16T16:46:41;20.59;44.19
68867;SHT30;56451;44.804;20.476;2022-10-16T16:49:10;20.51;44.25
68867;SHT30;56451;44.804;20.476;2022-10-16T16:51:37;20.42;44.36
68867;SHT30;56451;44.804;20.476;2022-10-16T16:54:05;20.35;44.50